Allen, Michigan
Current Conditions -  °F | °C
As of 12:55 AM on Saturday 20 Dec 2014 (Local Time) from KJYM Reporting Station
Haze Haze  
Wind Chill: 24°   Ceiling: 2300
Heat Index: 24°   Visibility: 5mi
Dew Point: 24°   Wind: 0mph
Humidity: 97%   Direction: NA
Pressure: 30.23"   Gusts: NA
Location:  41.96°N, 84.77°W
Report Text: KJYM 200555Z AUTO 00000KT 5SM BR OVC023 M04/M05 A3023 RMK AO2 T10421046 11013 21062 410131062
Loading
Personal Weather Stations






























Interactive Weather Map New forecast layout! Learn more

10-Day Weather Forecast

Advertisements
Track Severe Weather on mobile